sensor_id;sensor_type;location;lat;lon;timestamp;pressure;altitude;pressure_sealevel;temperature;humidity
76847;BME280;65813;49.546;8.644;2023-05-16T03:47:44;100402.88;;;12.90;75.71
76847;BME280;65813;49.546;8.644;2023-05-16T03:51:44;100406.13;;;12.93;75.86
76847;BME280;65813;49.546;8.644;2023-05-16T03:55:45;100409.06;;;12.90;76.07
76847;BME280;65813;49.546;8.644;2023-05-16T03:59:45;100415.34;;;13.00;75.63
76847;BME280;65813;49.546;8.644;2023-05-16T04:03:46;100413.53;;;13.01;75.70
76847;BME280;65813;49.546;8.644;2023-05-16T04:07:46;100416.41;;;12.77;76.43
76847;BME280;65813;49.546;8.644;2023-05-16T04:11:46;100431.94;;;12.83;76.66
76847;BME280;65813;49.546;8.644;2023-05-16T04:15:47;100435.22;;;12.87;76.47
76847;BME280;65813;49.546;8.644;2023-05-16T04:19:47;100437.78;;;12.88;76.39
76847;BME280;65813;49.546;8.644;2023-05-16T04:23:48;100433.72;;;12.94;76.31
76847;BME280;65813;49.546;8.644;2023-05-16T04:27:48;100434.06;;;13.00;75.77
76847;BME280;65813;49.546;8.644;2023-05-16T04:31:49;100435.34;;;12.85;76.21
76847;BME280;65813;49.546;8.644;2023-05-16T04:35:49;100436.25;;;13.06;75.65
76847;BME280;65813;49.546;8.644;2023-05-16T04:39:49;100439.06;;;13.05;75.37
76847;BME280;65813;49.546;8.644;2023-05-16T04:43:50;100446.50;;;12.90;75.83
76847;BME280;65813;49.546;8.644;2023-05-16T04:47:51;100457.66;;;13.06;75.85
76847;BME280;65813;49.546;8.644;2023-05-16T04:51:51;100463.75;;;12.97;76.31
76847;BME280;65813;49.546;8.644;2023-05-16T04:55:51;100472.00;;;13.05;76.40
76847;BME280;65813;49.546;8.644;2023-05-16T04:59:52;100460.56;;;13.14;75.87
76847;BME280;65813;49.546;8.644;2023-05-16T05:03:52;100470.72;;;13.32;74.77
76847;BME280;65813;49.546;8.644;2023-05-16T05:07:52;100474.78;;;13.15;75.16
76847;BME280;65813;49.546;8.644;2023-05-16T05:11:53;100474.50;;;13.29;74.47
76847;BME280;65813;49.546;8.644;2023-05-16T05:15:53;100477.69;;;13.23;74.27
76847;BME280;65813;49.546;8.644;2023-05-16T05:19:54;100475.88;;;13.24;74.40
76847;BME280;65813;49.546;8.644;2023-05-16T05:23:54;100484.38;;;13.18;75.24
76847;BME280;65813;49.546;8.644;2023-05-16T05:27:54;100483.72;;;13.36;74.31
76847;BME280;65813;49.546;8.644;2023-05-16T05:31:55;100488.22;;;13.36;74.16
76847;BME280;65813;49.546;8.644;2023-05-16T05:35:55;100494.75;;;13.43;74.23
76847;BME280;65813;49.546;8.644;2023-05-16T05:39:56;100484.78;;;13.86;72.29
76847;BME280;65813;49.546;8.644;2023-05-16T05:43:56;100490.81;;;13.58;73.25
76847;BME280;65813;49.546;8.644;2023-05-16T05:47:56;100490.03;;;13.88;72.00
76847;BME280;65813;49.546;8.644;2023-05-16T05:51:57;100494.00;;;13.73;72.19
76847;BME280;65813;49.546;8.644;2023-05-16T05:55:57;100488.03;;;13.69;73.02
76847;BME280;65813;49.546;8.644;2023-05-16T05:59:57;100500.41;;;13.60;73.04
76847;BME280;65813;49.546;8.644;2023-05-16T06:03:58;100502.13;;;14.03;71.47
76847;BME280;65813;49.546;8.644;2023-05-16T06:07:58;100501.53;;;13.99;71.62
76847;BME280;65813;49.546;8.644;2023-05-16T06:11:58;100509.94;;;14.15;71.25
76847;BME280;65813;49.546;8.644;2023-05-16T06:15:59;100510.38;;;14.21;71.28
76847;BME280;65813;49.546;8.644;2023-05-16T06:19:59;100516.25;;;14.14;71.05
76847;BME280;65813;49.546;8.644;2023-05-16T06:24:00;100515.03;;;14.18;71.37
76847;BME280;65813;49.546;8.644;2023-05-16T06:28:00;100519.47;;;13.88;71.95
76847;BME280;65813;49.546;8.644;2023-05-16T06:32:00;100524.59;;;13.59;73.63
76847;BME280;65813;49.546;8.644;2023-05-16T06:36:01;100519.66;;;13.54;73.48
76847;BME280;65813;49.546;8.644;2023-05-16T06:40:01;100524.38;;;13.30;74.47
76847;BME280;65813;49.546;8.644;2023-05-16T06:44:02;100531.78;;;13.27;74.69
76847;BME280;65813;49.546;8.644;2023-05-16T06:48:05;100521.09;;;13.27;75.04
76847;BME280;65813;49.546;8.644;2023-05-16T06:52:06;100520.34;;;13.25;74.57
76847;BME280;65813;49.546;8.644;2023-05-16T06:56:06;100536.41;;;13.25;74.52
76847;BME280;65813;49.546;8.644;2023-05-16T07:00:07;100537.59;;;13.32;75.00
76847;BME280;65813;49.546;8.644;2023-05-16T07:04:08;100549.56;;;13.17;74.82
76847;BME280;65813;49.546;8.644;2023-05-16T07:08:08;100550.88;;;13.00;74.94
76847;BME280;65813;49.546;8.644;2023-05-16T07:12:11;100552.94;;;12.96;74.51
76847;BME280;65813;49.546;8.644;2023-05-16T07:16:12;100561.72;;;12.98;74.79
76847;BME280;65813;49.546;8.644;2023-05-16T07:20:12;100565.16;;;12.89;74.67
76847;BME280;65813;49.546;8.644;2023-05-16T07:24:13;100572.16;;;12.90;73.99
76847;BME280;65813;49.546;8.644;2023-05-16T07:28:14;100563.44;;;12.77;73.98
76847;BME280;65813;49.546;8.644;2023-05-16T07:32:14;100572.06;;;12.70;73.98
76847;BME280;65813;49.546;8.644;2023-05-16T07:36:15;100569.13;;;12.73;74.63
76847;BME280;65813;49.546;8.644;2023-05-16T07:40:15;100578.25;;;12.70;75.00
76847;BME280;65813;49.546;8.644;2023-05-16T07:44:17;100580.19;;;12.57;76.11
76847;BME280;65813;49.546;8.644;2023-05-16T07:48:18;100590.59;;;12.38;77.22
76847;BME280;65813;49.546;8.644;2023-05-16T07:52:18;100595.94;;;12.38;78.04
76847;BME280;65813;49.546;8.644;2023-05-16T07:56:18;100599.22;;;12.41;76.37
76847;BME280;65813;49.546;8.644;2023-05-16T08:00:19;100605.81;;;12.48;74.89
76847;BME280;65813;49.546;8.644;2023-05-16T08:04:20;100598.66;;;12.60;73.57
76847;BME280;65813;49.546;8.644;2023-05-16T08:08:20;100606.19;;;12.55;73.50
76847;BME280;65813;49.546;8.644;2023-05-16T08:12:22;100610.31;;;12.59;73.38
76847;BME280;65813;49.546;8.644;2023-05-16T08:16:23;100609.34;;;12.60;72.77
76847;BME280;65813;49.546;8.644;2023-05-16T08:20:24;100622.44;;;12.52;71.30
76847;BME280;65813;49.546;8.644;2023-05-16T08:24:25;100611.16;;;12.48;70.50
76847;BME280;65813;49.546;8.644;2023-05-16T08:28:25;100610.31;;;12.48;69.32
76847;BME280;65813;49.546;8.644;2023-05-16T08:32:25;100612.75;;;12.51;70.67
76847;BME280;65813;49.546;8.644;2023-05-16T08:36:26;100617.84;;;12.54;69.93
76847;BME280;65813;49.546;8.644;2023-05-16T08:40:28;100626.56;;;12.45;69.91
76847;BME280;65813;49.546;8.644;2023-05-16T08:44:29;100621.84;;;12.48;70.13
76847;BME280;65813;49.546;8.644;2023-05-16T08:48:31;100620.75;;;12.62;71.00
76847;BME280;65813;49.546;8.644;2023-05-16T08:52:32;100630.03;;;12.80;70.63
76847;BME280;65813;49.546;8.644;2023-05-16T08:56:33;100625.75;;;13.00;70.28
76847;BME280;65813;49.546;8.644;2023-05-16T09:00:35;100631.38;;;13.19;70.10
76847;BME280;65813;49.546;8.644;2023-05-16T09:04:36;100624.56;;;13.26;69.18
76847;BME280;65813;49.546;8.644;2023-05-16T09:08:37;100625.38;;;13.38;69.31
76847;BME280;65813;49.546;8.644;2023-05-16T09:12:39;100630.28;;;13.33;68.01
76847;BME280;65813;49.546;8.644;2023-05-16T09:16:40;100626.78;;;13.10;68.24
76847;BME280;65813;49.546;8.644;2023-05-16T09:20:47;100647.75;;;12.70;71.18
76847;BME280;65813;49.546;8.644;2023-05-16T09:24:49;100640.97;;;12.31;72.18
76847;BME280;65813;49.546;8.644;2023-05-16T09:28:52;100651.66;;;11.96;73.65
76847;BME280;65813;49.546;8.644;2023-05-16T09:32:54;100651.97;;;11.81;74.32
76847;BME280;65813;49.546;8.644;2023-05-16T09:36:54;100666.78;;;11.85;75.10
76847;BME280;65813;49.546;8.644;2023-05-16T09:40:55;100665.94;;;11.84;73.65
76847;BME280;65813;49.546;8.644;2023-05-16T09:44:55;100680.38;;;12.05;71.54
76847;BME280;65813;49.546;8.644;2023-05-16T09:48:56;100676.50;;;12.44;69.50
76847;BME280;65813;49.546;8.644;2023-05-16T09:52:56;100678.03;;;12.36;68.40
76847;BME280;65813;49.546;8.644;2023-05-16T09:56:57;100681.19;;;12.30;67.82
76847;BME280;65813;49.546;8.644;2023-05-16T10:00:58;100687.06;;;12.46;67.63
76847;BME280;65813;49.546;8.644;2023-05-16T10:04:58;100695.81;;;12.48;66.90
76847;BME280;65813;49.546;8.644;2023-05-16T10:08:58;100689.34;;;12.39;66.54
76847;BME280;65813;49.546;8.644;2023-05-16T10:13:02;100693.34;;;12.34;65.13
76847;BME280;65813;49.546;8.644;2023-05-16T10:17:06;100690.44;;;12.37;65.58
76847;BME280;65813;49.546;8.644;2023-05-16T10:21:09;100699.97;;;12.63;65.92
76847;BME280;65813;49.546;8.644;2023-05-16T10:25:26;100694.31;;;12.79;65.11
76847;BME280;65813;49.546;8.644;2023-05-16T10:29:28;100689.22;;;12.87;65.54
76847;BME280;65813;49.546;8.644;2023-05-16T10:33:29;100709.50;;;12.78;65.89
76847;BME280;65813;49.546;8.644;2023-05-16T10:37:31;100708.06;;;12.96;65.25
76847;BME280;65813;49.546;8.644;2023-05-16T10:41:42;100714.50;;;12.94;65.29
76847;BME280;65813;49.546;8.644;2023-05-16T10:45:42;100705.03;;;13.01;65.41
76847;BME280;65813;49.546;8.644;2023-05-16T10:49:43;100703.25;;;13.12;65.89
76847;BME280;65813;49.546;8.644;2023-05-16T10:53:43;100702.50;;;13.10;65.65
76847;BME280;65813;49.546;8.644;2023-05-16T10:57:44;100700.69;;;13.22;65.39
76847;BME280;65813;49.546;8.644;2023-05-16T11:01:51;100706.91;;;13.23;65.76
76847;BME280;65813;49.546;8.644;2023-05-16T11:05:52;100711.28;;;13.24;65.73
76847;BME280;65813;49.546;8.644;2023-05-16T11:10:10;100717.47;;;13.24;65.72
76847;BME280;65813;49.546;8.644;2023-05-16T11:14:23;100722.81;;;13.24;65.17
76847;BME280;65813;49.546;8.644;2023-05-16T11:18:24;100719.78;;;13.29;65.13
76847;BME280;65813;49.546;8.644;2023-05-16T11:22:28;100717.84;;;13.20;65.36
76847;BME280;65813;49.546;8.644;2023-05-16T11:26:29;100714.69;;;13.26;65.54
76847;BME280;65813;49.546;8.644;2023-05-16T11:30:30;100731.81;;;13.34;64.91
76847;BME280;65813;49.546;8.644;2023-05-16T11:34:31;100728.53;;;13.42;64.94
76847;BME280;65813;49.546;8.644;2023-05-16T11:38:34;100720.53;;;13.31;63.78
76847;BME280;65813;49.546;8.644;2023-05-16T11:42:41;100723.78;;;13.45;64.63
76847;BME280;65813;49.546;8.644;2023-05-16T11:46:41;100730.75;;;13.48;65.24
76847;BME280;65813;49.546;8.644;2023-05-16T11:50:45;100732.44;;;13.60;64.58
76847;BME280;65813;49.546;8.644;2023-05-16T11:54:46;100724.16;;;13.63;63.87
76847;BME280;65813;49.546;8.644;2023-05-16T11:58:46;100732.94;;;13.65;63.30
76847;BME280;65813;49.546;8.644;2023-05-16T12:02:48;100745.22;;;13.56;63.40
76847;BME280;65813;49.546;8.644;2023-05-16T12:06:57;100736.31;;;13.67;63.24
76847;BME280;65813;49.546;8.644;2023-05-16T12:10:59;100737.28;;;13.77;63.77
76847;BME280;65813;49.546;8.644;2023-05-16T12:14:59;100740.41;;;13.93;63.41
76847;BME280;65813;49.546;8.644;2023-05-16T12:19:00;100737.47;;;13.96;63.57
76847;BME280;65813;49.546;8.644;2023-05-16T12:23:01;100745.91;;;13.92;63.16
76847;BME280;65813;49.546;8.644;2023-05-16T12:27:01;100749.03;;;13.97;63.39
76847;BME280;65813;49.546;8.644;2023-05-16T12:31:02;100754.28;;;13.98;62.10
76847;BME280;65813;49.546;8.644;2023-05-16T12:35:03;100750.84;;;13.96;62.38
76847;BME280;65813;49.546;8.644;2023-05-16T12:39:03;100752.56;;;13.97;62.40
76847;BME280;65813;49.546;8.644;2023-05-16T12:43:19;100754.25;;;14.09;61.73
76847;BME280;65813;49.546;8.644;2023-05-16T12:47:19;100750.31;;;14.13;61.00
76847;BME280;65813;49.546;8.644;2023-05-16T12:51:20;100751.19;;;14.14;60.55
76847;BME280;65813;49.546;8.644;2023-05-16T12:55:21;100758.59;;;14.22;60.62
76847;BME280;65813;49.546;8.644;2023-05-16T12:59:22;100755.41;;;14.28;61.10
76847;BME280;65813;49.546;8.644;2023-05-16T13:03:22;100755.56;;;14.37;61.20
76847;BME280;65813;49.546;8.644;2023-05-16T13:07:22;100760.00;;;14.48;60.03
76847;BME280;65813;49.546;8.644;2023-05-16T13:11:23;100759.19;;;14.68;59.50
76847;BME280;65813;49.546;8.644;2023-05-16T13:15:27;100753.69;;;14.70;58.94
76847;BME280;65813;49.546;8.644;2023-05-16T13:19:27;100763.66;;;14.79;57.37
76847;BME280;65813;49.546;8.644;2023-05-16T13:23:30;100767.50;;;14.65;58.27
76847;BME280;65813;49.546;8.644;2023-05-16T13:27:32;100772.50;;;14.58;58.14
76847;BME280;65813;49.546;8.644;2023-05-16T13:31:33;100768.09;;;14.69;57.39
76847;BME280;65813;49.546;8.644;2023-05-16T13:35:33;100769.19;;;14.66;55.67
76847;BME280;65813;49.546;8.644;2023-05-16T13:39:33;100762.38;;;14.62;54.93
76847;BME280;65813;49.546;8.644;2023-05-16T13:43:34;100774.81;;;14.63;53.96
76847;BME280;65813;49.546;8.644;2023-05-16T13:47:34;100756.78;;;14.65;53.49
76847;BME280;65813;49.546;8.644;2023-05-16T13:51:35;100757.91;;;14.72;51.30
76847;BME280;65813;49.546;8.644;2023-05-16T13:55:36;100761.56;;;14.82;51.13
76847;BME280;65813;49.546;8.644;2023-05-16T13:59:36;100761.03;;;14.88;51.11
76847;BME280;65813;49.546;8.644;2023-05-16T14:03:36;100758.44;;;15.07;48.66
76847;BME280;65813;49.546;8.644;2023-05-16T14:07:37;100755.91;;;15.06;46.62
76847;BME280;65813;49.546;8.644;2023-05-16T14:11:37;100748.91;;;15.14;47.26
76847;BME280;65813;49.546;8.644;2023-05-16T14:15:37;100749.75;;;15.15;47.65
76847;BME280;65813;49.546;8.644;2023-05-16T14:19:38;100746.44;;;15.32;49.89
76847;BME280;65813;49.546;8.644;2023-05-16T14:23:38;100746.59;;;15.31;51.66
76847;BME280;65813;49.546;8.644;2023-05-16T14:27:39;100746.22;;;15.45;48.58
76847;BME280;65813;49.546;8.644;2023-05-16T14:31:39;100729.13;;;15.46;45.45
76847;BME280;65813;49.546;8.644;2023-05-16T14:35:40;100734.13;;;15.50;48.26
76847;BME280;65813;49.546;8.644;2023-05-16T14:39:40;100729.09;;;15.36;46.84
76847;BME280;65813;49.546;8.644;2023-05-16T14:43:43;100731.19;;;15.63;45.74
76847;BME280;65813;49.546;8.644;2023-05-16T14:47:43;100727.31;;;15.86;45.54
76847;BME280;65813;49.546;8.644;2023-05-16T14:51:44;100723.88;;;15.65;44.50
76847;BME280;65813;49.546;8.644;2023-05-16T14:55:48;100715.00;;;15.93;42.74
76847;BME280;65813;49.546;8.644;2023-05-16T14:59:48;100708.84;;;16.22;45.22
76847;BME280;65813;49.546;8.644;2023-05-16T15:03:49;100706.84;;;16.43;44.79
76847;BME280;65813;49.546;8.644;2023-05-16T15:07:49;100707.13;;;16.49;39.36
76847;BME280;65813;49.546;8.644;2023-05-16T15:11:50;100703.59;;;16.49;41.34
76847;BME280;65813;49.546;8.644;2023-05-16T15:15:50;100711.09;;;16.55;39.87
76847;BME280;65813;49.546;8.644;2023-05-16T15:19:51;100716.81;;;16.61;43.61
76847;BME280;65813;49.546;8.644;2023-05-16T15:23:53;100714.53;;;16.66;41.24
76847;BME280;65813;49.546;8.644;2023-05-16T15:27:54;100714.38;;;16.68;44.12
76847;BME280;65813;49.546;8.644;2023-05-16T15:31:55;100711.13;;;16.64;40.84
76847;BME280;65813;49.546;8.644;2023-05-16T15:35:55;100705.16;;;16.13;41.52
76847;BME280;65813;49.546;8.644;2023-05-16T15:39:57;100711.09;;;16.16;41.29
76847;BME280;65813;49.546;8.644;2023-05-16T15:43:58;100711.69;;;16.20;41.20
76847;BME280;65813;49.546;8.644;2023-05-16T15:47:58;100722.84;;;16.25;40.21
76847;BME280;65813;49.546;8.644;2023-05-16T15:51:58;100726.78;;;16.11;38.23
76847;BME280;65813;49.546;8.644;2023-05-16T15:55:59;100721.00;;;16.26;41.09
76847;BME280;65813;49.546;8.644;2023-05-16T15:59:59;100723.56;;;16.27;37.40
76847;BME280;65813;49.546;8.644;2023-05-16T16:04:00;100711.97;;;16.36;39.49
76847;BME280;65813;49.546;8.644;2023-05-16T16:08:00;100723.69;;;16.16;40.37
76847;BME280;65813;49.546;8.644;2023-05-16T16:12:00;100724.78;;;16.04;40.90
76847;BME280;65813;49.546;8.644;2023-05-16T16:16:01;100726.09;;;16.29;39.88
76847;BME280;65813;49.546;8.644;2023-05-16T16:20:02;100724.25;;;16.29;40.48
76847;BME280;65813;49.546;8.644;2023-05-16T16:24:02;100727.69;;;16.41;39.18
76847;BME280;65813;49.546;8.644;2023-05-16T16:28:03;100729.50;;;16.40;39.66
76847;BME280;65813;49.546;8.644;2023-05-16T16:32:04;100728.38;;;16.52;39.72
76847;BME280;65813;49.546;8.644;2023-05-16T16:36:04;100721.47;;;16.59;39.79
76847;BME280;65813;49.546;8.644;2023-05-16T16:40:07;100737.88;;;16.66;38.58
76847;BME280;65813;49.546;8.644;2023-05-16T16:44:08;100726.53;;;16.72;38.60
76847;BME280;65813;49.546;8.644;2023-05-16T16:48:08;100739.59;;;16.67;37.74
76847;BME280;65813;49.546;8.644;2023-05-16T16:52:09;100735.75;;;16.41;40.65
76847;BME280;65813;49.546;8.644;2023-05-16T16:56:10;100744.47;;;16.14;37.83
76847;BME280;65813;49.546;8.644;2023-05-16T17:00:11;100743.78;;;16.12;38.14
76847;BME280;65813;49.546;8.644;2023-05-16T17:04:11;100751.53;;;16.05;37.52
76847;BME280;65813;49.546;8.644;2023-05-16T17:08:11;100752.97;;;16.09;36.92
76847;BME280;65813;49.546;8.644;2023-05-16T17:12:12;100753.09;;;16.08;37.17
76847;BME280;65813;49.546;8.644;2023-05-16T17:16:21;100760.88;;;16.01;37.91
76847;BME280;65813;49.546;8.644;2023-05-16T17:20:21;100769.31;;;15.87;37.52
76847;BME280;65813;49.546;8.644;2023-05-16T17:24:21;100767.91;;;15.93;37.87
76847;BME280;65813;49.546;8.644;2023-05-16T17:28:22;100775.78;;;15.75;37.52
76847;BME280;65813;49.546;8.644;2023-05-16T17:32:22;100778.72;;;15.72;39.24
76847;BME280;65813;49.546;8.644;2023-05-16T17:36:22;100778.09;;;15.59;39.35
76847;BME280;65813;49.546;8.644;2023-05-16T17:40:23;100787.34;;;15.45;38.70
76847;BME280;65813;49.546;8.644;2023-05-16T17:44:23;100788.59;;;15.41;38.76
76847;BME280;65813;49.546;8.644;2023-05-16T17:48:24;100788.41;;;15.54;37.68
76847;BME280;65813;49.546;8.644;2023-05-16T17:52:24;100786.16;;;15.59;38.77
76847;BME280;65813;49.546;8.644;2023-05-16T17:56:24;100790.00;;;15.66;41.10
76847;BME280;65813;49.546;8.644;2023-05-16T18:00:25;100791.75;;;15.46;40.51
76847;BME280;65813;49.546;8.644;2023-05-16T18:04:25;100790.84;;;15.36;40.15
76847;BME280;65813;49.546;8.644;2023-05-16T18:08:25;100799.78;;;15.16;40.35
76847;BME280;65813;49.546;8.644;2023-05-16T18:12:26;100802.31;;;15.17;42.30
76847;BME280;65813;49.546;8.644;2023-05-16T18:16:28;100815.13;;;15.14;41.99
76847;BME280;65813;49.546;8.644;2023-05-16T18:20:29;100811.09;;;15.20;45.40
76847;BME280;65813;49.546;8.644;2023-05-16T18:24:30;100822.53;;;15.22;48.46
76847;BME280;65813;49.546;8.644;2023-05-16T18:28:30;100816.53;;;15.08;43.03
76847;BME280;65813;49.546;8.644;2023-05-16T18:32:31;100830.69;;;14.79;43.13
76847;BME280;65813;49.546;8.644;2023-05-16T18:36:31;100824.78;;;14.96;48.94
76847;BME280;65813;49.546;8.644;2023-05-16T18:40:32;100824.69;;;15.07;49.61
76847;BME280;65813;49.546;8.644;2023-05-16T18:44:32;100838.03;;;14.97;52.21
76847;BME280;65813;49.546;8.644;2023-05-16T18:48:33;100842.22;;;14.90;46.50
76847;BME280;65813;49.546;8.644;2023-05-16T18:52:33;100859.91;;;15.13;48.64
76847;BME280;65813;49.546;8.644;2023-05-16T18:56:35;100863.53;;;15.24;49.37
76847;BME280;65813;49.546;8.644;2023-05-16T19:00:38;100865.53;;;15.10;47.29
76847;BME280;65813;49.546;8.644;2023-05-16T19:04:38;100871.41;;;15.04;45.63
76847;BME280;65813;49.546;8.644;2023-05-16T19:08:39;100877.09;;;14.90;43.44
76847;BME280;65813;49.546;8.644;2023-05-16T19:12:39;100879.09;;;14.77;44.63
76847;BME280;65813;49.546;8.644;2023-05-16T19:16:39;100885.50;;;14.65;43.81
76847;BME280;65813;49.546;8.644;2023-05-16T19:20:40;100891.97;;;14.51;42.68
76847;BME280;65813;49.546;8.644;2023-05-16T19:24:41;100900.41;;;14.36;43.66
76847;BME280;65813;49.546;8.644;2023-05-16T19:28:41;100912.44;;;14.30;43.73
76847;BME280;65813;49.546;8.644;2023-05-16T19:32:41;100915.00;;;14.09;44.62
76847;BME280;65813;49.546;8.644;2023-05-16T19:36:42;100925.47;;;13.90;46.95
76847;BME280;65813;49.546;8.644;2023-05-16T19:40:42;100931.31;;;13.84;47.85
76847;BME280;65813;49.546;8.644;2023-05-16T19:44:43;100929.94;;;13.68;49.22
76847;BME280;65813;49.546;8.644;2023-05-16T19:48:43;100930.88;;;13.55;49.34
76847;BME280;65813;49.546;8.644;2023-05-16T19:52:44;100942.44;;;13.56;49.59
76847;BME280;65813;49.546;8.644;2023-05-16T19:56:44;100940.34;;;13.48;50.01
76847;BME280;65813;49.546;8.644;2023-05-16T20:00:45;100961.38;;;13.42;50.73
76847;BME280;65813;49.546;8.644;2023-05-16T20:04:46;100957.44;;;13.35;51.40
76847;BME280;65813;49.546;8.644;2023-05-16T20:08:46;100964.69;;;13.22;51.71
76847;BME280;65813;49.546;8.644;2023-05-16T20:12:46;100973.81;;;13.19;51.83
76847;BME280;65813;49.546;8.644;2023-05-16T20:16:47;100983.66;;;13.19;52.63
76847;BME280;65813;49.546;8.644;2023-05-16T20:20:47;100988.28;;;13.04;52.19
76847;BME280;65813;49.546;8.644;2023-05-16T20:24:47;100989.84;;;12.95;52.84
76847;BME280;65813;49.546;8.644;2023-05-16T20:28:48;100990.88;;;13.05;52.94
76847;BME280;65813;49.546;8.644;2023-05-16T20:32:48;101001.41;;;12.83;53.58
76847;BME280;65813;49.546;8.644;2023-05-16T20:36:48;101003.28;;;12.70;53.58
76847;BME280;65813;49.546;8.644;2023-05-16T20:40:49;101002.78;;;12.65;53.93
76847;BME280;65813;49.546;8.644;2023-05-16T20:44:49;100993.03;;;12.64;54.24
76847;BME280;65813;49.546;8.644;2023-05-16T20:48:49;101008.97;;;12.53;54.14
76847;BME280;65813;49.546;8.644;2023-05-16T20:52:50;101004.19;;;12.58;53.94
76847;BME280;65813;49.546;8.644;2023-05-16T20:56:50;101006.00;;;12.45;54.86
76847;BME280;65813;49.546;8.644;2023-05-16T21:00:50;101009.31;;;12.36;54.40
76847;BME280;65813;49.546;8.644;2023-05-16T21:04:50;101009.22;;;12.25;54.53
76847;BME280;65813;49.546;8.644;2023-05-16T21:08:51;101016.50;;;12.23;54.31
76847;BME280;65813;49.546;8.644;2023-05-16T21:12:51;101030.81;;;12.22;54.31
76847;BME280;65813;49.546;8.644;2023-05-16T21:16:51;101028.25;;;12.07;54.94
76847;BME280;65813;49.546;8.644;2023-05-16T21:20:52;101023.75;;;11.95;55.08
76847;BME280;65813;49.546;8.644;2023-05-16T21:24:52;101027.91;;;11.87;54.99
76847;BME280;65813;49.546;8.644;2023-05-16T21:28:52;101040.81;;;11.80;55.32
76847;BME280;65813;49.546;8.644;2023-05-16T21:32:53;101037.72;;;11.74;55.67
76847;BME280;65813;49.546;8.644;2023-05-16T21:36:53;101034.88;;;11.62;55.28
76847;BME280;65813;49.546;8.644;2023-05-16T21:40:53;101041.06;;;11.63;55.56
76847;BME280;65813;49.546;8.644;2023-05-16T21:44:56;101056.63;;;11.56;55.82
76847;BME280;65813;49.546;8.644;2023-05-16T21:48:56;101046.88;;;11.43;55.84
76847;BME280;65813;49.546;8.644;2023-05-16T21:52:57;101049.84;;;11.38;55.75
76847;BME280;65813;49.546;8.644;2023-05-16T21:56:57;101065.41;;;11.32;55.95
76847;BME280;65813;49.546;8.644;2023-05-16T22:00:57;101074.56;;;11.28;56.63
76847;BME280;65813;49.546;8.644;2023-05-16T22:04:58;101067.53;;;11.27;56.21
76847;BME280;65813;49.546;8.644;2023-05-16T22:08:58;101071.00;;;11.00;56.78
76847;BME280;65813;49.546;8.644;2023-05-16T22:12:59;101077.78;;;10.92;56.61
76847;BME280;65813;49.546;8.644;2023-05-16T22:16:59;101077.88;;;10.76;57.16
76847;BME280;65813;49.546;8.644;2023-05-16T22:21:00;101096.94;;;10.84;57.38
76847;BME280;65813;49.546;8.644;2023-05-16T22:25:00;101090.53;;;10.87;57.43
76847;BME280;65813;49.546;8.644;2023-05-16T22:29:00;101100.34;;;10.86;56.82
76847;BME280;65813;49.546;8.644;2023-05-16T22:33:01;101080.28;;;10.81;57.80
76847;BME280;65813;49.546;8.644;2023-05-16T22:37:02;101093.69;;;10.93;57.65
76847;BME280;65813;49.546;8.644;2023-05-16T22:41:03;101100.25;;;11.02;57.83
76847;BME280;65813;49.546;8.644;2023-05-16T22:45:03;101104.72;;;11.01;58.09
76847;BME280;65813;49.546;8.644;2023-05-16T22:49:04;101096.81;;;11.00;58.22
76847;BME280;65813;49.546;8.644;2023-05-16T22:53:04;101105.38;;;11.05;58.44
76847;BME280;65813;49.546;8.644;2023-05-16T22:57:04;101106.16;;;10.93;58.72
